Schedule Details


Flight Number: CTN413
Departure: Frankfurt/main (EDDF) at 12:05
Arrival: Kastela (LDSP) at 13:45
Route: NOMBO UZ738 MUN UM867 VAROB DCT GIMIX DCT SABAD L862 GISER UL862 PALEZ L862 OKLAX

Weather Information
EDDF 112320Z 25006KT 9999 -RA FEW014 SCT026 BKN038 13/11 Q1010 NOSIG
LDSP 112330Z AUTO 11004KT 050V180 9999 SHRA FEW021/// OVC062/// 18/14 Q1009
Schedule Frequency

Route Map